sensor_id;sensor_type;location;lat;lon;timestamp;P1;durP1;ratioP1;P2;durP2;ratioP2
26774;SDS011;14362;51.902;7.626;2023-07-20T00:02:12;9.27;;;7.80;;
26774;SDS011;14362;51.902;7.626;2023-07-20T00:06:14;9.68;;;7.68;;
26774;SDS011;14362;51.902;7.626;2023-07-20T00:10:15;9.57;;;8.40;;
26774;SDS011;14362;51.902;7.626;2023-07-20T00:14:17;11.10;;;9.13;;
26774;SDS011;14362;51.902;7.626;2023-07-20T00:18:20;9.07;;;8.18;;
26774;SDS011;14362;51.902;7.626;2023-07-20T00:22:22;11.65;;;9.32;;
26774;SDS011;14362;51.902;7.626;2023-07-20T00:26:23;13.20;;;8.73;;
26774;SDS011;14362;51.902;7.626;2023-07-20T00:30:25;11.32;;;8.38;;
26774;SDS011;14362;51.902;7.626;2023-07-20T00:34:27;10.13;;;8.10;;
26774;SDS011;14362;51.902;7.626;2023-07-20T00:38:29;9.82;;;8.82;;
26774;SDS011;14362;51.902;7.626;2023-07-20T00:42:30;15.07;;;9.23;;
26774;SDS011;14362;51.902;7.626;2023-07-20T00:46:32;10.07;;;9.07;;
26774;SDS011;14362;51.902;7.626;2023-07-20T00:50:35;13.07;;;9.10;;
26774;SDS011;14362;51.902;7.626;2023-07-20T00:54:37;9.98;;;8.88;;
26774;SDS011;14362;51.902;7.626;2023-07-20T00:58:38;14.20;;;8.95;;
26774;SDS011;14362;51.902;7.626;2023-07-20T01:02:40;10.10;;;8.85;;
26774;SDS011;14362;51.902;7.626;2023-07-20T01:06:45;9.65;;;8.75;;
26774;SDS011;14362;51.902;7.626;2023-07-20T01:10:56;12.48;;;9.75;;
26774;SDS011;14362;51.902;7.626;2023-07-20T01:15:03;10.55;;;9.45;;
26774;SDS011;14362;51.902;7.626;2023-07-20T01:19:07;12.25;;;10.63;;
26774;SDS011;14362;51.902;7.626;2023-07-20T01:23:26;9.70;;;8.80;;
26774;SDS011;14362;51.902;7.626;2023-07-20T01:27:47;11.52;;;9.43;;
26774;SDS011;14362;51.902;7.626;2023-07-20T01:32:08;12.15;;;10.15;;
26774;SDS011;14362;51.902;7.626;2023-07-20T01:36:10;10.13;;;8.90;;
26774;SDS011;14362;51.902;7.626;2023-07-20T01:40:12;13.85;;;11.32;;
26774;SDS011;14362;51.902;7.626;2023-07-20T01:44:15;11.30;;;9.85;;
26774;SDS011;14362;51.902;7.626;2023-07-20T01:48:18;15.70;;;11.45;;
26774;SDS011;14362;51.902;7.626;2023-07-20T01:52:19;11.35;;;10.25;;
26774;SDS011;14362;51.902;7.626;2023-07-20T01:56:21;14.02;;;10.40;;
26774;SDS011;14362;51.902;7.626;2023-07-20T02:00:22;12.07;;;10.48;;
26774;SDS011;14362;51.902;7.626;2023-07-20T02:04:25;12.77;;;10.48;;
26774;SDS011;14362;51.902;7.626;2023-07-20T02:08:27;12.32;;;11.13;;
26774;SDS011;14362;51.902;7.626;2023-07-20T02:12:28;13.98;;;11.65;;
26774;SDS011;14362;51.902;7.626;2023-07-20T02:16:30;14.38;;;11.45;;
26774;SDS011;14362;51.902;7.626;2023-07-20T02:20:32;14.35;;;11.20;;
26774;SDS011;14362;51.902;7.626;2023-07-20T02:24:34;13.73;;;9.95;;
26774;SDS011;14362;51.902;7.626;2023-07-20T02:28:35;13.13;;;11.15;;
26774;SDS011;14362;51.902;7.626;2023-07-20T02:32:37;12.70;;;11.50;;
26774;SDS011;14362;51.902;7.626;2023-07-20T02:36:40;15.65;;;13.55;;
26774;SDS011;14362;51.902;7.626;2023-07-20T02:40:42;19.75;;;14.57;;
26774;SDS011;14362;51.902;7.626;2023-07-20T02:44:44;17.60;;;13.30;;
26774;SDS011;14362;51.902;7.626;2023-07-20T02:48:45;15.65;;;13.90;;
26774;SDS011;14362;51.902;7.626;2023-07-20T02:52:48;14.63;;;13.15;;
26774;SDS011;14362;51.902;7.626;2023-07-20T02:56:50;14.98;;;13.45;;
26774;SDS011;14362;51.902;7.626;2023-07-20T03:00:51;15.13;;;13.23;;
26774;SDS011;14362;51.902;7.626;2023-07-20T03:04:53;13.40;;;12.07;;
26774;SDS011;14362;51.902;7.626;2023-07-20T03:08:55;13.30;;;11.70;;
26774;SDS011;14362;51.902;7.626;2023-07-20T03:12:57;11.43;;;10.43;;
26774;SDS011;14362;51.902;7.626;2023-07-20T03:16:59;11.50;;;10.40;;
26774;SDS011;14362;51.902;7.626;2023-07-20T03:21:00;11.50;;;10.40;;
26774;SDS011;14362;51.902;7.626;2023-07-20T03:25:04;12.13;;;11.02;;
26774;SDS011;14362;51.902;7.626;2023-07-20T03:29:06;11.90;;;10.80;;
26774;SDS011;14362;51.902;7.626;2023-07-20T03:33:08;12.48;;;11.43;;
26774;SDS011;14362;51.902;7.626;2023-07-20T03:37:09;11.23;;;10.13;;
26774;SDS011;14362;51.902;7.626;2023-07-20T03:41:12;12.35;;;11.25;;
26774;SDS011;14362;51.902;7.626;2023-07-20T03:45:15;13.35;;;12.15;;
26774;SDS011;14362;51.902;7.626;2023-07-20T03:49:17;11.55;;;10.45;;
26774;SDS011;14362;51.902;7.626;2023-07-20T03:53:19;11.55;;;10.52;;
26774;SDS011;14362;51.902;7.626;2023-07-20T03:57:22;12.18;;;11.00;;
26774;SDS011;14362;51.902;7.626;2023-07-20T04:01:23;12.60;;;11.60;;
26774;SDS011;14362;51.902;7.626;2023-07-20T04:05:24;12.25;;;11.15;;
26774;SDS011;14362;51.902;7.626;2023-07-20T04:09:26;11.93;;;10.80;;
26774;SDS011;14362;51.902;7.626;2023-07-20T04:13:29;11.88;;;10.88;;
26774;SDS011;14362;51.902;7.626;2023-07-20T04:17:33;13.10;;;11.93;;
26774;SDS011;14362;51.902;7.626;2023-07-20T04:21:39;16.30;;;14.82;;
26774;SDS011;14362;51.902;7.626;2023-07-20T04:25:41;18.67;;;16.85;;
26774;SDS011;14362;51.902;7.626;2023-07-20T04:29:44;22.25;;;20.20;;
26774;SDS011;14362;51.902;7.626;2023-07-20T04:33:45;28.83;;;25.85;;
26774;SDS011;14362;51.902;7.626;2023-07-20T04:37:47;27.13;;;24.45;;
26774;SDS011;14362;51.902;7.626;2023-07-20T04:41:48;28.73;;;25.85;;
26774;SDS011;14362;51.902;7.626;2023-07-20T04:45:51;27.08;;;24.45;;
26774;SDS011;14362;51.902;7.626;2023-07-20T04:49:52;27.65;;;24.85;;
26774;SDS011;14362;51.902;7.626;2023-07-20T04:53:54;27.48;;;24.70;;
26774;SDS011;14362;51.902;7.626;2023-07-20T04:57:55;27.50;;;24.90;;
26774;SDS011;14362;51.902;7.626;2023-07-20T05:01:58;25.13;;;22.65;;
26774;SDS011;14362;51.902;7.626;2023-07-20T05:05:59;23.25;;;21.13;;
26774;SDS011;14362;51.902;7.626;2023-07-20T05:10:02;21.98;;;20.05;;
26774;SDS011;14362;51.902;7.626;2023-07-20T05:14:04;22.58;;;20.48;;
26774;SDS011;14362;51.902;7.626;2023-07-20T05:18:07;21.30;;;19.33;;
26774;SDS011;14362;51.902;7.626;2023-07-20T05:22:08;18.98;;;17.27;;
26774;SDS011;14362;51.902;7.626;2023-07-20T05:26:11;19.25;;;17.63;;
26774;SDS011;14362;51.902;7.626;2023-07-20T05:30:12;17.58;;;16.05;;
26774;SDS011;14362;51.902;7.626;2023-07-20T05:34:15;16.80;;;15.30;;
26774;SDS011;14362;51.902;7.626;2023-07-20T05:38:16;15.02;;;13.52;;
26774;SDS011;14362;51.902;7.626;2023-07-20T05:42:18;15.52;;;13.98;;
26774;SDS011;14362;51.902;7.626;2023-07-20T05:46:19;13.90;;;12.60;;
26774;SDS011;14362;51.902;7.626;2023-07-20T05:50:22;13.70;;;12.48;;
26774;SDS011;14362;51.902;7.626;2023-07-20T05:54:23;11.98;;;10.98;;
26774;SDS011;14362;51.902;7.626;2023-07-20T05:58:25;11.73;;;10.73;;
26774;SDS011;14362;51.902;7.626;2023-07-20T06:02:27;10.10;;;9.10;;
26774;SDS011;14362;51.902;7.626;2023-07-20T06:06:30;9.25;;;8.52;;
26774;SDS011;14362;51.902;7.626;2023-07-20T06:10:32;8.75;;;7.97;;
26774;SDS011;14362;51.902;7.626;2023-07-20T06:14:33;8.02;;;7.32;;
26774;SDS011;14362;51.902;7.626;2023-07-20T06:18:35;7.40;;;6.72;;
26774;SDS011;14362;51.902;7.626;2023-07-20T06:22:38;6.60;;;6.10;;
26774;SDS011;14362;51.902;7.626;2023-07-20T06:26:39;6.80;;;6.20;;
26774;SDS011;14362;51.902;7.626;2023-07-20T06:30:41;6.72;;;6.13;;
26774;SDS011;14362;51.902;7.626;2023-07-20T06:34:43;7.65;;;7.05;;
26774;SDS011;14362;51.902;7.626;2023-07-20T06:38:45;6.70;;;6.20;;
26774;SDS011;14362;51.902;7.626;2023-07-20T06:42:47;6.25;;;5.65;;
26774;SDS011;14362;51.902;7.626;2023-07-20T06:46:50;5.95;;;5.38;;
26774;SDS011;14362;51.902;7.626;2023-07-20T06:50:52;5.80;;;5.22;;
26774;SDS011;14362;51.902;7.626;2023-07-20T06:58:59;5.82;;;5.28;;
26774;SDS011;14362;51.902;7.626;2023-07-20T07:03:02;5.03;;;4.47;;
26774;SDS011;14362;51.902;7.626;2023-07-20T07:07:04;4.80;;;4.30;;
26774;SDS011;14362;51.902;7.626;2023-07-20T07:11:07;4.07;;;3.60;;
26774;SDS011;14362;51.902;7.626;2023-07-20T07:15:09;4.63;;;3.73;;
26774;SDS011;14362;51.902;7.626;2023-07-20T07:19:11;2.38;;;1.90;;
26774;SDS011;14362;51.902;7.626;2023-07-20T07:23:13;2.50;;;1.95;;
26774;SDS011;14362;51.902;7.626;2023-07-20T07:27:16;4.05;;;2.55;;
26774;SDS011;14362;51.902;7.626;2023-07-20T07:31:17;2.80;;;2.60;;
26774;SDS011;14362;51.902;7.626;2023-07-20T07:35:19;2.08;;;1.92;;
26774;SDS011;14362;51.902;7.626;2023-07-20T07:39:21;2.35;;;1.80;;
26774;SDS011;14362;51.902;7.626;2023-07-20T07:43:25;3.45;;;2.13;;
26774;SDS011;14362;51.902;7.626;2023-07-20T07:47:27;1.40;;;1.20;;
26774;SDS011;14362;51.902;7.626;2023-07-20T07:51:28;3.80;;;2.00;;
26774;SDS011;14362;51.902;7.626;2023-07-20T07:55:30;2.75;;;2.03;;
26774;SDS011;14362;51.902;7.626;2023-07-20T07:59:32;1.90;;;1.70;;
26774;SDS011;14362;51.902;7.626;2023-07-20T08:03:36;2.80;;;1.90;;
26774;SDS011;14362;51.902;7.626;2023-07-20T08:07:38;2.33;;;1.48;;
26774;SDS011;14362;51.902;7.626;2023-07-20T08:11:39;2.42;;;1.80;;
26774;SDS011;14362;51.902;7.626;2023-07-20T08:15:48;2.72;;;1.55;;
26774;SDS011;14362;51.902;7.626;2023-07-20T08:19:51;2.38;;;1.70;;
26774;SDS011;14362;51.902;7.626;2023-07-20T08:23:53;1.73;;;1.60;;
26774;SDS011;14362;51.902;7.626;2023-07-20T08:27:54;3.30;;;1.60;;
26774;SDS011;14362;51.902;7.626;2023-07-20T08:31:57;2.75;;;1.50;;
26774;SDS011;14362;51.902;7.626;2023-07-20T08:35:58;1.48;;;1.20;;
26774;SDS011;14362;51.902;7.626;2023-07-20T08:40:01;1.13;;;0.90;;
26774;SDS011;14362;51.902;7.626;2023-07-20T08:48:08;2.45;;;0.85;;
26774;SDS011;14362;51.902;7.626;2023-07-20T08:52:10;1.58;;;0.90;;
26774;SDS011;14362;51.902;7.626;2023-07-20T08:56:12;2.17;;;1.23;;
26774;SDS011;14362;51.902;7.626;2023-07-20T09:00:16;2.50;;;1.10;;
26774;SDS011;14362;51.902;7.626;2023-07-20T09:04:21;0.85;;;0.77;;
26774;SDS011;14362;51.902;7.626;2023-07-20T09:08:23;1.33;;;0.90;;
26774;SDS011;14362;51.902;7.626;2023-07-20T09:12:25;1.02;;;0.93;;
26774;SDS011;14362;51.902;7.626;2023-07-20T09:16:27;1.00;;;0.90;;
26774;SDS011;14362;51.902;7.626;2023-07-20T09:20:32;0.90;;;0.88;;
26774;SDS011;14362;51.902;7.626;2023-07-20T09:24:34;0.95;;;0.70;;
26774;SDS011;14362;51.902;7.626;2023-07-20T09:28:39;0.75;;;0.65;;
26774;SDS011;14362;51.902;7.626;2023-07-20T09:32:43;1.65;;;0.85;;
26774;SDS011;14362;51.902;7.626;2023-07-20T09:36:47;1.23;;;1.10;;
26774;SDS011;14362;51.902;7.626;2023-07-20T09:40:50;1.00;;;0.90;;
26774;SDS011;14362;51.902;7.626;2023-07-20T09:44:52;2.63;;;0.60;;
26774;SDS011;14362;51.902;7.626;2023-07-20T09:48:54;0.85;;;0.70;;
26774;SDS011;14362;51.902;7.626;2023-07-20T09:52:57;1.45;;;0.60;;
26774;SDS011;14362;51.902;7.626;2023-07-20T09:56:59;1.07;;;0.50;;
26774;SDS011;14362;51.902;7.626;2023-07-20T10:01:03;1.00;;;0.77;;
26774;SDS011;14362;51.902;7.626;2023-07-20T10:05:08;0.50;;;0.50;;
26774;SDS011;14362;51.902;7.626;2023-07-20T10:09:13;1.33;;;0.60;;
26774;SDS011;14362;51.902;7.626;2023-07-20T10:13:17;1.10;;;0.65;;
26774;SDS011;14362;51.902;7.626;2023-07-20T10:17:22;0.90;;;0.63;;
26774;SDS011;14362;51.902;7.626;2023-07-20T10:21:26;0.60;;;0.60;;
26774;SDS011;14362;51.902;7.626;2023-07-20T10:25:31;0.50;;;0.43;;
26774;SDS011;14362;51.902;7.626;2023-07-20T10:29:37;1.10;;;0.50;;
26774;SDS011;14362;51.902;7.626;2023-07-20T10:33:40;0.82;;;0.70;;
26774;SDS011;14362;51.902;7.626;2023-07-20T10:37:49;0.57;;;0.52;;
26774;SDS011;14362;51.902;7.626;2023-07-20T10:42:00;0.82;;;0.80;;
26774;SDS011;14362;51.902;7.626;2023-07-20T10:46:03;0.60;;;0.60;;
26774;SDS011;14362;51.902;7.626;2023-07-20T10:50:05;1.05;;;0.60;;
26774;SDS011;14362;51.902;7.626;2023-07-20T10:54:07;0.73;;;0.60;;
26774;SDS011;14362;51.902;7.626;2023-07-20T10:58:11;0.50;;;0.50;;
26774;SDS011;14362;51.902;7.626;2023-07-20T11:02:17;1.48;;;0.80;;
26774;SDS011;14362;51.902;7.626;2023-07-20T11:06:32;0.63;;;0.50;;
26774;SDS011;14362;51.902;7.626;2023-07-20T11:10:38;0.40;;;0.40;;
26774;SDS011;14362;51.902;7.626;2023-07-20T11:14:41;1.75;;;0.68;;
26774;SDS011;14362;51.902;7.626;2023-07-20T11:18:43;1.73;;;0.50;;
26774;SDS011;14362;51.902;7.626;2023-07-20T11:22:45;1.70;;;0.60;;
26774;SDS011;14362;51.902;7.626;2023-07-20T11:26:48;0.63;;;0.60;;
26774;SDS011;14362;51.902;7.626;2023-07-20T11:30:53;1.65;;;0.63;;
26774;SDS011;14362;51.902;7.626;2023-07-20T11:34:54;0.82;;;0.50;;
26774;SDS011;14362;51.902;7.626;2023-07-20T11:38:56;1.73;;;0.57;;
26774;SDS011;14362;51.902;7.626;2023-07-20T11:42:58;0.88;;;0.50;;
26774;SDS011;14362;51.902;7.626;2023-07-20T11:47:01;0.70;;;0.50;;
26774;SDS011;14362;51.902;7.626;2023-07-20T11:51:05;2.08;;;0.80;;
26774;SDS011;14362;51.902;7.626;2023-07-20T11:55:07;1.17;;;0.65;;
26774;SDS011;14362;51.902;7.626;2023-07-20T11:59:08;1.08;;;0.60;;
26774;SDS011;14362;51.902;7.626;2023-07-20T12:03:11;0.52;;;0.52;;
26774;SDS011;14362;51.902;7.626;2023-07-20T12:07:13;0.50;;;0.50;;
26774;SDS011;14362;51.902;7.626;2023-07-20T12:11:29;1.02;;;0.63;;
26774;SDS011;14362;51.902;7.626;2023-07-20T12:15:31;0.55;;;0.50;;
26774;SDS011;14362;51.902;7.626;2023-07-20T12:19:37;0.50;;;0.50;;
26774;SDS011;14362;51.902;7.626;2023-07-20T12:23:39;0.90;;;0.70;;
26774;SDS011;14362;51.902;7.626;2023-07-20T12:27:42;0.93;;;0.52;;
26774;SDS011;14362;51.902;7.626;2023-07-20T12:31:45;0.60;;;0.60;;
26774;SDS011;14362;51.902;7.626;2023-07-20T12:35:48;0.68;;;0.40;;
26774;SDS011;14362;51.902;7.626;2023-07-20T12:39:51;0.77;;;0.63;;
26774;SDS011;14362;51.902;7.626;2023-07-20T12:43:52;0.57;;;0.57;;
26774;SDS011;14362;51.902;7.626;2023-07-20T12:47:57;0.55;;;0.55;;
26774;SDS011;14362;51.902;7.626;2023-07-20T12:52:00;1.10;;;0.50;;
26774;SDS011;14362;51.902;7.626;2023-07-20T12:56:02;2.60;;;0.90;;
26774;SDS011;14362;51.902;7.626;2023-07-20T13:00:05;0.55;;;0.55;;
26774;SDS011;14362;51.902;7.626;2023-07-20T13:08:11;0.75;;;0.68;;
26774;SDS011;14362;51.902;7.626;2023-07-20T13:12:13;0.60;;;0.55;;
26774;SDS011;14362;51.902;7.626;2023-07-20T13:16:14;0.60;;;0.50;;
26774;SDS011;14362;51.902;7.626;2023-07-20T13:20:16;1.88;;;0.70;;
26774;SDS011;14362;51.902;7.626;2023-07-20T13:24:19;1.08;;;0.60;;
26774;SDS011;14362;51.902;7.626;2023-07-20T13:28:21;0.60;;;0.50;;
26774;SDS011;14362;51.902;7.626;2023-07-20T13:32:22;1.17;;;0.60;;
26774;SDS011;14362;51.902;7.626;2023-07-20T13:36:24;1.60;;;0.45;;
26774;SDS011;14362;51.902;7.626;2023-07-20T13:40:26;1.45;;;0.52;;
26774;SDS011;14362;51.902;7.626;2023-07-20T13:44:28;0.65;;;0.40;;
26774;SDS011;14362;51.902;7.626;2023-07-20T13:48:29;0.77;;;0.60;;
26774;SDS011;14362;51.902;7.626;2023-07-20T13:52:31;0.40;;;0.40;;
26774;SDS011;14362;51.902;7.626;2023-07-20T13:56:33;0.40;;;0.40;;
26774;SDS011;14362;51.902;7.626;2023-07-20T14:00:35;0.73;;;0.47;;
26774;SDS011;14362;51.902;7.626;2023-07-20T14:04:36;0.50;;;0.50;;
26774;SDS011;14362;51.902;7.626;2023-07-20T14:08:38;0.68;;;0.60;;
26774;SDS011;14362;51.902;7.626;2023-07-20T14:12:41;0.77;;;0.50;;
26774;SDS011;14362;51.902;7.626;2023-07-20T14:16:43;0.50;;;0.50;;
26774;SDS011;14362;51.902;7.626;2023-07-20T14:20:44;1.30;;;0.45;;
26774;SDS011;14362;51.902;7.626;2023-07-20T14:24:46;0.32;;;0.32;;
26774;SDS011;14362;51.902;7.626;2023-07-20T14:28:48;1.55;;;0.43;;
26774;SDS011;14362;51.902;7.626;2023-07-20T14:32:50;0.30;;;0.30;;
26774;SDS011;14362;51.902;7.626;2023-07-20T14:36:51;0.95;;;0.43;;
26774;SDS011;14362;51.902;7.626;2023-07-20T14:40:53;2.05;;;0.68;;
26774;SDS011;14362;51.902;7.626;2023-07-20T14:44:56;1.13;;;0.60;;
26774;SDS011;14362;51.902;7.626;2023-07-20T14:48:57;1.92;;;0.80;;
26774;SDS011;14362;51.902;7.626;2023-07-20T14:52:59;1.08;;;0.60;;
26774;SDS011;14362;51.902;7.626;2023-07-20T14:57:00;1.05;;;0.60;;
26774;SDS011;14362;51.902;7.626;2023-07-20T15:01:04;2.67;;;0.63;;
26774;SDS011;14362;51.902;7.626;2023-07-20T15:05:06;0.88;;;0.60;;
26774;SDS011;14362;51.902;7.626;2023-07-20T15:09:08;0.50;;;0.50;;
26774;SDS011;14362;51.902;7.626;2023-07-20T15:13:10;0.90;;;0.50;;
26774;SDS011;14362;51.902;7.626;2023-07-20T15:17:12;1.02;;;0.50;;
26774;SDS011;14362;51.902;7.626;2023-07-20T15:21:14;0.47;;;0.47;;
26774;SDS011;14362;51.902;7.626;2023-07-20T15:25:15;1.67;;;0.35;;
26774;SDS011;14362;51.902;7.626;2023-07-20T15:29:17;0.77;;;0.60;;
26774;SDS011;14362;51.902;7.626;2023-07-20T15:33:20;1.27;;;0.50;;
26774;SDS011;14362;51.902;7.626;2023-07-20T15:37:21;0.70;;;0.60;;
26774;SDS011;14362;51.902;7.626;2023-07-20T15:41:23;1.88;;;0.70;;
26774;SDS011;14362;51.902;7.626;2023-07-20T15:45:24;0.98;;;0.60;;
26774;SDS011;14362;51.902;7.626;2023-07-20T15:49:30;0.60;;;0.60;;
26774;SDS011;14362;51.902;7.626;2023-07-20T15:53:33;0.50;;;0.30;;
26774;SDS011;14362;51.902;7.626;2023-07-20T15:57:34;0.50;;;0.50;;
26774;SDS011;14362;51.902;7.626;2023-07-20T16:01:36;0.77;;;0.60;;
26774;SDS011;14362;51.902;7.626;2023-07-20T16:05:41;1.85;;;0.50;;
26774;SDS011;14362;51.902;7.626;2023-07-20T16:09:43;0.83;;;0.60;;
26774;SDS011;14362;51.902;7.626;2023-07-20T16:13:45;0.80;;;0.50;;
26774;SDS011;14362;51.902;7.626;2023-07-20T16:17:46;2.25;;;0.52;;
26774;SDS011;14362;51.902;7.626;2023-07-20T16:21:49;1.00;;;0.80;;
26774;SDS011;14362;51.902;7.626;2023-07-20T16:25:50;0.85;;;0.70;;
26774;SDS011;14362;51.902;7.626;2023-07-20T16:29:52;1.83;;;0.50;;
26774;SDS011;14362;51.902;7.626;2023-07-20T16:33:53;2.03;;;0.77;;
26774;SDS011;14362;51.902;7.626;2023-07-20T16:37:56;0.95;;;0.68;;
26774;SDS011;14362;51.902;7.626;2023-07-20T16:41:58;0.73;;;0.50;;
26774;SDS011;14362;51.902;7.626;2023-07-20T16:46:00;1.23;;;1.00;;
26774;SDS011;14362;51.902;7.626;2023-07-20T16:50:01;0.98;;;0.70;;
26774;SDS011;14362;51.902;7.626;2023-07-20T16:54:04;1.08;;;0.60;;
26774;SDS011;14362;51.902;7.626;2023-07-20T16:58:07;1.30;;;0.50;;
26774;SDS011;14362;51.902;7.626;2023-07-20T17:02:09;1.23;;;0.70;;
26774;SDS011;14362;51.902;7.626;2023-07-20T17:06:11;0.88;;;0.55;;
26774;SDS011;14362;51.902;7.626;2023-07-20T17:10:14;0.60;;;0.60;;
26774;SDS011;14362;51.902;7.626;2023-07-20T17:14:17;0.93;;;0.60;;
26774;SDS011;14362;51.902;7.626;2023-07-20T17:18:19;0.77;;;0.60;;
26774;SDS011;14362;51.902;7.626;2023-07-20T17:22:20;0.88;;;0.57;;
26774;SDS011;14362;51.902;7.626;2023-07-20T17:26:23;0.60;;;0.50;;
26774;SDS011;14362;51.902;7.626;2023-07-20T17:30:25;0.90;;;0.60;;
26774;SDS011;14362;51.902;7.626;2023-07-20T17:34:28;0.50;;;0.50;;
26774;SDS011;14362;51.902;7.626;2023-07-20T17:38:29;1.83;;;0.68;;
26774;SDS011;14362;51.902;7.626;2023-07-20T17:42:32;0.60;;;0.50;;
26774;SDS011;14362;51.902;7.626;2023-07-20T17:46:33;1.00;;;0.88;;
26774;SDS011;14362;51.902;7.626;2023-07-20T17:50:35;1.05;;;0.65;;
26774;SDS011;14362;51.902;7.626;2023-07-20T17:54:36;1.70;;;0.70;;
26774;SDS011;14362;51.902;7.626;2023-07-20T17:58:39;0.68;;;0.47;;
26774;SDS011;14362;51.902;7.626;2023-07-20T18:02:41;1.63;;;1.00;;
26774;SDS011;14362;51.902;7.626;2023-07-20T18:06:43;0.93;;;0.80;;
26774;SDS011;14362;51.902;7.626;2023-07-20T18:10:44;2.17;;;0.75;;
26774;SDS011;14362;51.902;7.626;2023-07-20T18:14:47;1.55;;;1.02;;
26774;SDS011;14362;51.902;7.626;2023-07-20T18:18:48;1.42;;;0.93;;
26774;SDS011;14362;51.902;7.626;2023-07-20T18:22:50;0.98;;;0.70;;
26774;SDS011;14362;51.902;7.626;2023-07-20T18:26:51;1.40;;;0.68;;
26774;SDS011;14362;51.902;7.626;2023-07-20T18:30:54;0.80;;;0.50;;
26774;SDS011;14362;51.902;7.626;2023-07-20T18:34:55;0.57;;;0.50;;
26774;SDS011;14362;51.902;7.626;2023-07-20T18:38:57;1.67;;;0.60;;
26774;SDS011;14362;51.902;7.626;2023-07-20T18:42:58;1.38;;;1.10;;
26774;SDS011;14362;51.902;7.626;2023-07-20T18:47:01;1.23;;;0.82;;
26774;SDS011;14362;51.902;7.626;2023-07-20T18:51:02;1.25;;;0.70;;
26774;SDS011;14362;51.902;7.626;2023-07-20T18:55:05;1.13;;;0.70;;
26774;SDS011;14362;51.902;7.626;2023-07-20T18:59:06;2.20;;;0.80;;
26774;SDS011;14362;51.902;7.626;2023-07-20T19:03:09;1.23;;;0.80;;
26774;SDS011;14362;51.902;7.626;2023-07-20T19:07:10;1.95;;;0.68;;
26774;SDS011;14362;51.902;7.626;2023-07-20T19:11:13;1.48;;;1.00;;
26774;SDS011;14362;51.902;7.626;2023-07-20T19:15:15;0.85;;;0.80;;
26774;SDS011;14362;51.902;7.626;2023-07-20T19:19:18;2.05;;;0.85;;
26774;SDS011;14362;51.902;7.626;2023-07-20T19:23:20;0.70;;;0.70;;
26774;SDS011;14362;51.902;7.626;2023-07-20T19:27:22;1.13;;;0.88;;
26774;SDS011;14362;51.902;7.626;2023-07-20T19:31:23;0.80;;;0.80;;
26774;SDS011;14362;51.902;7.626;2023-07-20T19:35:26;1.40;;;0.85;;
26774;SDS011;14362;51.902;7.626;2023-07-20T19:39:27;0.93;;;0.80;;
26774;SDS011;14362;51.902;7.626;2023-07-20T19:43:30;1.17;;;1.05;;
26774;SDS011;14362;51.902;7.626;2023-07-20T19:47:33;1.80;;;0.73;;
26774;SDS011;14362;51.902;7.626;2023-07-20T19:51:36;1.10;;;0.80;;
26774;SDS011;14362;51.902;7.626;2023-07-20T19:55:38;1.38;;;1.08;;
26774;SDS011;14362;51.902;7.626;2023-07-20T19:59:39;1.58;;;1.17;;
26774;SDS011;14362;51.902;7.626;2023-07-20T20:03:43;1.27;;;1.10;;
26774;SDS011;14362;51.902;7.626;2023-07-20T20:07:46;1.20;;;1.10;;
26774;SDS011;14362;51.902;7.626;2023-07-20T20:11:49;3.65;;;1.30;;
26774;SDS011;14362;51.902;7.626;2023-07-20T20:15:50;1.52;;;1.35;;
26774;SDS011;14362;51.902;7.626;2023-07-20T20:19:52;1.20;;;1.10;;
26774;SDS011;14362;51.902;7.626;2023-07-20T20:23:54;3.20;;;1.10;;
26774;SDS011;14362;51.902;7.626;2023-07-20T20:27:56;1.50;;;1.10;;
26774;SDS011;14362;51.902;7.626;2023-07-20T20:31:57;1.30;;;1.20;;
26774;SDS011;14362;51.902;7.626;2023-07-20T20:35:59;2.47;;;1.30;;
26774;SDS011;14362;51.902;7.626;2023-07-20T20:40:02;2.95;;;1.50;;
26774;SDS011;14362;51.902;7.626;2023-07-20T20:44:04;1.25;;;0.85;;
26774;SDS011;14362;51.902;7.626;2023-07-20T20:48:06;1.50;;;1.23;;
26774;SDS011;14362;51.902;7.626;2023-07-20T20:52:07;1.42;;;1.33;;
26774;SDS011;14362;51.902;7.626;2023-07-20T20:56:10;1.50;;;1.40;;
26774;SDS011;14362;51.902;7.626;2023-07-20T21:00:12;3.55;;;1.33;;
26774;SDS011;14362;51.902;7.626;2023-07-20T21:04:14;1.05;;;0.95;;
26774;SDS011;14362;51.902;7.626;2023-07-20T21:08:15;1.05;;;0.95;;
26774;SDS011;14362;51.902;7.626;2023-07-20T21:12:18;1.83;;;1.13;;
26774;SDS011;14362;51.902;7.626;2023-07-20T21:16:19;1.75;;;0.95;;
26774;SDS011;14362;51.902;7.626;2023-07-20T21:20:21;2.10;;;1.23;;
26774;SDS011;14362;51.902;7.626;2023-07-20T21:24:22;1.45;;;1.35;;
26774;SDS011;14362;51.902;7.626;2023-07-20T21:28:25;2.15;;;1.02;;
26774;SDS011;14362;51.902;7.626;2023-07-20T21:32:27;2.33;;;1.15;;
26774;SDS011;14362;51.902;7.626;2023-07-20T21:36:28;1.45;;;1.15;;
26774;SDS011;14362;51.902;7.626;2023-07-20T21:40:30;1.10;;;1.00;;
26774;SDS011;14362;51.902;7.626;2023-07-20T21:44:32;2.22;;;1.00;;
26774;SDS011;14362;51.902;7.626;2023-07-20T21:48:34;2.55;;;0.90;;
26774;SDS011;14362;51.902;7.626;2023-07-20T21:52:37;0.82;;;0.82;;
26774;SDS011;14362;51.902;7.626;2023-07-20T21:56:38;3.13;;;1.10;;
26774;SDS011;14362;51.902;7.626;2023-07-20T22:00:41;1.30;;;0.80;;
26774;SDS011;14362;51.902;7.626;2023-07-20T22:04:43;1.30;;;1.20;;
26774;SDS011;14362;51.902;7.626;2023-07-20T22:08:45;4.07;;;1.38;;
26774;SDS011;14362;51.902;7.626;2023-07-20T22:12:46;2.33;;;1.20;;
26774;SDS011;14362;51.902;7.626;2023-07-20T22:16:49;2.50;;;1.45;;
26774;SDS011;14362;51.902;7.626;2023-07-20T22:20:51;1.70;;;1.20;;
26774;SDS011;14362;51.902;7.626;2023-07-20T22:24:52;3.70;;;1.45;;
26774;SDS011;14362;51.902;7.626;2023-07-20T22:28:54;2.38;;;1.40;;
26774;SDS011;14362;51.902;7.626;2023-07-20T22:32:56;1.75;;;1.20;;
26774;SDS011;14362;51.902;7.626;2023-07-20T22:36:58;2.05;;;1.38;;
26774;SDS011;14362;51.902;7.626;2023-07-20T22:41:00;3.47;;;1.33;;
26774;SDS011;14362;51.902;7.626;2023-07-20T22:45:01;1.45;;;1.10;;
26774;SDS011;14362;51.902;7.626;2023-07-20T22:49:06;4.33;;;1.53;;
26774;SDS011;14362;51.902;7.626;2023-07-20T22:53:08;2.63;;;1.42;;
26774;SDS011;14362;51.902;7.626;2023-07-20T22:57:09;2.85;;;1.42;;
26774;SDS011;14362;51.902;7.626;2023-07-20T23:01:11;3.55;;;1.25;;
26774;SDS011;14362;51.902;7.626;2023-07-20T23:05:13;2.00;;;1.38;;
26774;SDS011;14362;51.902;7.626;2023-07-20T23:09:16;2.07;;;1.00;;
26774;SDS011;14362;51.902;7.626;2023-07-20T23:13:18;3.47;;;1.30;;
26774;SDS011;14362;51.902;7.626;2023-07-20T23:17:19;2.17;;;1.40;;
26774;SDS011;14362;51.902;7.626;2023-07-20T23:21:23;2.55;;;1.95;;
26774;SDS011;14362;51.902;7.626;2023-07-20T23:25:24;3.13;;;1.52;;
26774;SDS011;14362;51.902;7.626;2023-07-20T23:29:27;2.83;;;1.60;;
26774;SDS011;14362;51.902;7.626;2023-07-20T23:33:29;2.03;;;1.42;;
26774;SDS011;14362;51.902;7.626;2023-07-20T23:37:32;1.63;;;1.30;;
26774;SDS011;14362;51.902;7.626;2023-07-20T23:41:33;1.83;;;1.55;;
26774;SDS011;14362;51.902;7.626;2023-07-20T23:45:35;2.92;;;1.80;;
26774;SDS011;14362;51.902;7.626;2023-07-20T23:49:36;2.42;;;1.60;;
26774;SDS011;14362;51.902;7.626;2023-07-20T23:53:39;2.22;;;1.63;;
26774;SDS011;14362;51.902;7.626;2023-07-20T23:57:41;1.90;;;1.70;;
